createdAt,value
2018-11-29T00:00:23.197Z,965.99
2018-11-29T00:03:53.497Z,965.21
2018-11-29T00:07:23.557Z,964.79
2018-11-29T00:10:53.939Z,964.39
2018-11-29T00:14:24.057Z,964.91
2018-11-29T00:17:54.117Z,965.26
2018-11-29T00:21:24.195Z,964.49
2018-11-29T00:24:54.346Z,965.09
2018-11-29T00:28:24.396Z,964.42
2018-11-29T00:31:54.535Z,965.29
2018-11-29T00:35:24.625Z,965.13
2018-11-29T00:38:54.685Z,965.95
2018-11-29T00:42:24.715Z,965.8
2018-11-29T00:45:54.911Z,965.39
2018-11-29T00:49:24.878Z,964.82
2018-11-29T00:52:54.918Z,964.75
2018-11-29T00:56:24.880Z,963.92
2018-11-29T00:59:55.093Z,964.43
2018-11-29T01:03:25.133Z,964.55
2018-11-29T01:06:55.497Z,964.75
2018-11-29T01:10:25.613Z,965.21
2018-11-29T01:13:55.792Z,964.9
2018-11-29T01:17:25.842Z,965.55
2018-11-29T01:20:55.934Z,965.74
2018-11-29T01:24:26.012Z,965.52
2018-11-29T01:27:56.121Z,964.76
2018-11-29T01:31:26.221Z,964.57
2018-11-29T01:34:56.371Z,964.83
2018-11-29T01:38:26.376Z,964.44
2018-11-29T01:41:56.531Z,964.68
2018-11-29T01:45:26.650Z,964.42
2018-11-29T01:48:56.690Z,964.15
2018-11-29T01:52:26.710Z,963.72
2018-11-29T01:55:56.770Z,964.17
2018-11-29T01:59:26.779Z,964.27
2018-11-29T02:00:17.463Z,964.37
2018-11-29T02:03:47.527Z,964.61
2018-11-29T02:07:17.549Z,964.84
2018-11-29T02:10:51.889Z,964.7
2018-11-29T02:14:21.928Z,964.35
2018-11-29T02:17:52.168Z,964.57
2018-11-29T02:21:22.798Z,964.69
2018-11-29T02:24:52.988Z,964.64
2018-11-29T02:28:22.940Z,964.03
2018-11-29T02:31:52.999Z,962.92
2018-11-29T02:35:23.079Z,962.77
2018-11-29T02:38:53.098Z,962.69
2018-11-29T02:42:23.176Z,962.31
2018-11-29T02:45:53.265Z,962.74
2018-11-29T02:49:23.276Z,962.84
2018-11-29T02:52:53.421Z,963.33
2018-11-29T02:56:23.507Z,962.97
2018-11-29T02:59:53.544Z,962.31
2018-11-29T03:03:23.717Z,962.99
2018-11-29T03:06:53.736Z,963.13
2018-11-29T03:10:43.334Z,963.13
2018-11-29T03:17:11.343Z,962.91
2018-11-29T16:42:24.338Z,962.36
2018-11-29T18:55:25.024Z,962.27
2018-11-29T18:58:55.134Z,962.57
2018-11-29T19:02:25.304Z,963.03
2018-11-29T19:05:55.343Z,962.24
2018-11-29T19:09:25.523Z,962.52
2018-11-29T19:12:57.863Z,962.59
2018-11-29T19:16:27.992Z,962.63
2018-11-29T19:19:58.101Z,961.93
2018-11-29T19:23:28.422Z,962.04
2018-11-29T19:26:58.511Z,962.45
2018-11-29T19:30:29.461Z,962.37
2018-11-29T19:34:01.542Z,962.24
2018-11-29T19:37:32.221Z,962.65
2018-11-29T19:41:02.287Z,962.38
2018-11-29T19:44:32.589Z,961.94
2018-11-29T19:48:03.189Z,962.3
2018-11-29T19:51:33.347Z,962.47
2018-11-29T19:55:03.768Z,962.13
2018-11-29T19:58:34.208Z,962.25
2018-11-29T20:00:16.488Z,962.84
2018-11-29T20:03:46.778Z,962.59
2018-11-29T20:07:16.827Z,962.77
2018-11-29T20:10:46.986Z,962.74
2018-11-29T20:14:17.117Z,962.58
2018-11-29T20:17:47.316Z,962.36
2018-11-29T20:21:17.435Z,962.14
2018-11-29T20:24:47.605Z,962.09
2018-11-29T20:28:17.705Z,962.83
2018-11-29T20:31:48.056Z,962.45
2018-11-29T20:35:18.274Z,962.13
2018-11-29T20:38:48.514Z,961.38
2018-11-29T20:42:18.603Z,962.84
2018-11-29T20:45:51.373Z,962.82
2018-11-29T20:49:21.444Z,962.34
2018-11-29T20:52:52.752Z,962.57
2018-11-29T20:56:22.962Z,962.46
2018-11-29T20:59:53.381Z,962.66
2018-11-29T21:03:23.557Z,961.99
2018-11-29T21:06:53.797Z,961.98
2018-11-29T21:10:24.480Z,961.72
2018-11-29T21:13:54.970Z,961.61
2018-11-29T21:17:25.069Z,962.3
2018-11-29T21:20:55.299Z,962.52
2018-11-29T21:24:25.461Z,962.37
2018-11-29T21:27:55.628Z,962.39
2018-11-29T21:31:25.718Z,962.47
2018-11-29T21:34:55.847Z,962.07
2018-11-29T21:38:26.008Z,962.2
2018-11-29T21:41:56.218Z,962.47
2018-11-29T21:45:26.397Z,962.27
2018-11-29T21:48:56.576Z,961.96
2018-11-29T21:52:26.775Z,961.93
2018-11-29T21:55:56.928Z,961.87
2018-11-29T21:59:27.025Z,961.92
2018-11-29T22:00:18.294Z,961.65
2018-11-29T22:03:48.843Z,962.14
2018-11-29T22:07:57.607Z,962.29
2018-11-29T22:11:27.653Z,962.64
2018-11-29T22:14:57.113Z,962.4
2018-11-29T22:19:31.672Z,963.04
2018-11-29T22:23:01.210Z,963.08
2018-11-29T22:26:31.361Z,963.78
2018-11-29T22:30:01.523Z,963.76
2018-11-29T22:33:31.740Z,963.83
2018-11-29T22:37:02.037Z,963.24
2018-11-29T22:40:32.291Z,963.58
2018-11-29T22:44:02.529Z,963.12
2018-11-29T22:47:32.999Z,962.82
2018-11-29T22:51:02.550Z,963.04
2018-11-29T22:54:32.848Z,962.72
2018-11-29T22:58:03.049Z,963.09
2018-11-29T23:01:33.388Z,962.62
2018-11-29T23:05:04.067Z,962.63
2018-11-29T23:08:58.877Z,962.16
2018-11-29T23:12:28.367Z,962.04
2018-11-29T23:15:58.566Z,962.8
2018-11-29T23:19:28.739Z,962.41
2018-11-29T23:22:58.895Z,963.07
2018-11-29T23:26:28.936Z,962.82
2018-11-29T23:29:59.074Z,962.21
2018-11-29T23:33:29.315Z,963.21
2018-11-29T23:36:59.580Z,963.56
2018-11-29T23:40:29.784Z,963.74
2018-11-29T23:44:00.066Z,963.13
2018-11-29T23:47:30.253Z,962.99
2018-11-29T23:51:00.373Z,962.99
2018-11-29T23:54:30.583Z,962.92
2018-11-29T23:58:00.752Z,962.84
